createdAt,value
2023-04-15T20:15:52.930Z,77.55
2023-04-15T20:17:00.319Z,79.53
2023-04-15T20:18:06.841Z,77.22
2023-04-15T20:19:14.491Z,79.95
2023-04-15T20:20:20.937Z,76.57
2023-04-15T20:21:27.374Z,78.00
2023-04-15T20:22:33.438Z,83.00
2023-04-15T20:23:39.889Z,85.75
2023-04-15T20:24:45.515Z,82.82
2023-04-15T20:25:51.923Z,82.53
2023-04-15T20:26:58.990Z,83.60
2023-04-15T20:28:04.564Z,79.55
2023-04-15T20:29:10.959Z,83.57
2023-04-15T20:30:16.077Z,86.07
2023-04-15T20:31:24.978Z,85.17
2023-04-15T20:32:30.186Z,76.72
2023-04-15T20:33:36.853Z,80.57
2023-04-15T20:34:41.944Z,76.82
2023-04-15T20:35:48.390Z,79.65
2023-04-15T20:36:53.712Z,81.57
2023-04-15T20:38:00.149Z,79.47
2023-04-15T20:39:05.480Z,80.97
2023-04-15T20:40:13.212Z,80.95
2023-04-15T20:41:19.641Z,81.65
2023-04-15T20:42:28.556Z,82.07
2023-04-15T20:43:33.662Z,77.95
2023-04-15T20:44:40.593Z,79.40
2023-04-15T20:45:47.254Z,81.57
2023-04-15T20:46:54.051Z,74.97
2023-04-15T20:48:00.580Z,83.90
2023-04-15T20:49:05.982Z,80.18
2023-04-15T20:50:13.668Z,83.80
2023-04-15T20:51:18.786Z,82.40
2023-04-15T20:52:25.192Z,79.78
2023-04-15T20:53:30.340Z,76.80
2023-04-15T20:54:36.796Z,78.22
2023-04-15T20:55:41.972Z,82.07
2023-04-15T20:56:48.368Z,78.95
2023-04-15T20:57:53.876Z,79.00
2023-04-15T20:59:00.364Z,81.82
2023-04-15T21:00:06.446Z,74.70
2023-04-15T21:01:12.938Z,80.10
2023-04-15T21:02:19.942Z,76.68
2023-04-15T21:03:26.621Z,79.10
2023-04-15T21:04:31.869Z,79.50
2023-04-15T21:05:38.292Z,77.63
2023-04-15T21:06:43.407Z,74.90
2023-04-15T21:07:49.905Z,74.28
2023-04-15T21:08:56.341Z,77.85
2023-04-15T21:10:02.782Z,79.57
2023-04-15T21:11:07.909Z,77.68
2023-04-15T21:12:14.657Z,77.72
2023-04-15T21:13:19.856Z,78.80
2023-04-15T21:14:26.310Z,76.82
2023-04-15T21:15:32.750Z,79.00
2023-04-15T21:16:38.302Z,74.25
2023-04-15T21:17:46.571Z,79.35
2023-04-15T21:18:51.975Z,74.60
2023-04-15T21:19:58.549Z,76.72
2023-04-15T21:21:05.677Z,77.95
2023-04-15T21:22:11.007Z,81.40
2023-04-15T21:23:17.508Z,75.95
2023-04-15T21:24:22.749Z,78.07
2023-04-15T21:25:29.338Z,77.07
2023-04-15T21:26:34.537Z,77.03
2023-04-15T21:27:41.104Z,77.25
2023-04-15T21:28:46.368Z,74.43
2023-04-15T21:29:54.856Z,78.45
2023-04-15T21:31:00.670Z,74.20
2023-04-15T21:32:07.286Z,74.40
2023-04-15T21:33:15.664Z,77.85
2023-04-15T21:34:21.025Z,78.07
2023-04-15T21:35:27.558Z,76.82
2023-04-15T21:36:33.084Z,78.10
2023-04-15T21:37:40.021Z,76.47
2023-04-15T21:38:45.345Z,78.60
2023-04-15T21:39:51.940Z,73.68
2023-04-15T21:40:57.158Z,73.78
2023-04-15T21:42:04.243Z,75.57
2023-04-15T21:43:09.812Z,76.35
2023-04-15T21:44:16.445Z,78.63
2023-04-15T21:45:21.831Z,72.38
2023-04-15T21:46:36.131Z,77.35
2023-04-15T21:48:00.817Z,77.03
2023-04-15T21:49:09.840Z,72.20
2023-04-15T21:50:17.283Z,73.03
2023-04-15T21:51:22.572Z,74.68
2023-04-15T21:52:29.132Z,76.65
2023-04-15T21:53:34.384Z,74.18
2023-04-15T21:54:40.876Z,75.05
2023-04-15T21:55:46.111Z,71.22
2023-04-15T21:56:52.921Z,76.40
2023-04-15T21:57:58.215Z,73.45
2023-04-15T21:59:05.135Z,76.28
2023-04-15T22:00:12.309Z,75.40
2023-04-15T22:01:21.059Z,74.88
2023-04-15T22:02:26.515Z,70.90
2023-04-15T22:03:34.983Z,75.53
2023-04-15T22:04:42.153Z,69.78
2023-04-15T22:05:49.696Z,69.55
2023-04-15T22:06:57.101Z,71.82
2023-04-15T22:08:06.073Z,72.05
2023-04-15T22:09:13.453Z,75.75
2023-04-15T22:10:21.001Z,79.18
2023-04-15T22:11:28.647Z,74.40
2023-04-15T22:12:35.399Z,71.07
2023-04-15T22:13:40.668Z,72.82
2023-04-15T22:14:47.642Z,74.03
2023-04-15T22:15:53.013Z,74.65
2023-04-15T22:17:00.676Z,70.70
2023-04-15T22:18:06.091Z,72.68
2023-04-15T22:19:12.798Z,76.80
2023-04-15T22:20:19.804Z,72.05
2023-04-15T22:21:26.454Z,70.32
2023-04-15T22:22:42.570Z,75.30
2023-04-15T22:23:49.770Z,71.63
2023-04-15T22:24:56.285Z,70.93
2023-04-15T22:26:02.742Z,70.07
2023-04-15T22:27:12.320Z,74.35
2023-04-15T22:28:17.568Z,71.28
2023-04-15T22:29:24.080Z,71.95
2023-04-15T22:30:29.466Z,74.90
2023-04-15T22:31:39.222Z,73.93
2023-04-15T22:32:44.572Z,73.50
2023-04-15T22:33:51.088Z,69.27
2023-04-15T22:34:56.307Z,71.45
2023-04-15T22:36:04.545Z,71.50
2023-04-15T22:37:09.767Z,69.78
2023-04-15T22:38:16.289Z,71.30
2023-04-15T22:39:21.997Z,70.53
2023-04-15T22:40:28.538Z,69.47
2023-04-15T22:41:33.809Z,72.45
2023-04-15T22:42:40.345Z,70.05
2023-04-15T22:43:45.611Z,73.82
2023-04-15T22:44:52.708Z,68.17
2023-04-15T22:45:58.127Z,68.97
2023-04-15T22:47:04.682Z,69.85
2023-04-15T22:48:10.024Z,71.78
2023-04-15T22:49:16.615Z,66.72
2023-04-15T22:50:22.096Z,70.22
2023-04-15T22:51:31.069Z,68.75
2023-04-15T22:52:36.318Z,72.07
2023-04-15T22:53:42.884Z,70.55
2023-04-15T22:54:50.878Z,74.72
2023-04-15T22:55:57.517Z,69.67
2023-04-15T22:57:02.758Z,65.85
2023-04-15T22:58:09.344Z,66.97
2023-04-15T22:59:15.919Z,67.25
2023-04-15T23:00:21.259Z,67.80
2023-04-15T23:01:28.013Z,71.15
2023-04-15T23:02:33.433Z,67.93
2023-04-15T23:03:55.925Z,66.68
2023-04-15T23:05:13.098Z,69.93
2023-04-15T23:06:18.953Z,68.57
2023-04-15T23:07:27.265Z,68.67
2023-04-15T23:08:32.668Z,69.15
2023-04-15T23:09:39.248Z,67.55
2023-04-15T23:10:46.011Z,68.93
2023-04-15T23:11:52.574Z,65.95
2023-04-15T23:12:57.871Z,73.18
2023-04-15T23:14:04.502Z,72.00
2023-04-15T23:15:10.751Z,75.13
2023-04-15T23:16:17.464Z,70.65
2023-04-15T23:17:22.756Z,65.22
2023-04-15T23:18:29.404Z,68.03
2023-04-15T23:19:34.633Z,66.28
2023-04-15T23:20:41.228Z,71.18
2023-04-15T23:21:46.481Z,68.32
2023-04-15T23:22:54.770Z,68.35
2023-04-15T23:24:00.040Z,68.90
2023-04-15T23:25:06.651Z,69.22
2023-04-15T23:26:11.948Z,75.15
2023-04-15T23:27:19.075Z,65.90
2023-04-15T23:28:24.362Z,70.10
2023-04-15T23:29:30.974Z,65.73
2023-04-15T23:30:36.291Z,67.72
2023-04-15T23:31:43.177Z,68.45
2023-04-15T23:32:48.502Z,69.90
2023-04-15T23:33:55.198Z,65.95
2023-04-15T23:35:00.438Z,65.32
2023-04-15T23:36:07.166Z,66.22
2023-04-15T23:37:12.412Z,67.78
2023-04-15T23:38:20.750Z,66.57
2023-04-15T23:39:26.044Z,67.85
2023-04-15T23:40:32.649Z,67.03
2023-04-15T23:41:38.435Z,66.07
2023-04-15T23:42:44.993Z,67.13
2023-04-15T23:43:50.206Z,69.63
2023-04-15T23:44:56.717Z,67.93
2023-04-15T23:46:01.931Z,71.10
2023-04-15T23:47:08.568Z,66.43
2023-04-15T23:48:13.779Z,67.80
2023-04-15T23:49:20.600Z,64.97
2023-04-15T23:50:25.961Z,63.28
2023-04-15T23:51:32.540Z,67.13
2023-04-15T23:52:37.805Z,67.53
2023-04-15T23:53:46.105Z,69.82
2023-04-15T23:54:51.329Z,68.30
2023-04-15T23:55:57.861Z,67.13
2023-04-15T23:57:03.083Z,71.50
2023-04-15T23:58:09.600Z,65.53
2023-04-15T23:59:14.825Z,71.32
